Bedford, Michigan
Current Conditions -  °F | °C
As of 2:53 AM on Tuesday 21 Oct 2014 (Local Time) from KBTL Reporting Station
Overcast Overcast  
Wind Chill: 44°   Ceiling: 1800
Heat Index: 47°   Visibility: 10mi
Dew Point: 41°   Wind: 7mph
Humidity: 80%   Direction: 330°NNW
Pressure: 29.94"   Gusts: NA
Location:  42.4°N, 85.23°W
Report Text: KBTL 210653Z 33006KT 10SM BKN018 OVC055 08/05 A2994 RMK AO2 SLP141 T00830050
Loading
Personal Weather Stations






























Interactive Weather Map New forecast layout! Learn more

10-Day Weather Forecast

Advertisements
Track Severe Weather on mobile